Terminal Aerodrome Forecast
Issued by NWS Grand Forks, ND

Home | Current Version | Previous Version | Graphics & Text | Print | Product List | Glossary On
Versions: 1 2 3 4 5 6 7 8 9 10 11 12 13 14 15 16 17 18 19 20
044
FTUS43 KFGF 110520
TAFGFK
TAF
KGFK 110520Z 1106/1206 VRB04KT P6SM SCT080
     FM110900 VRB04KT P6SM BKN080
     FM120000 35008KT P6SM BKN200=

USA.gov is the U.S. government's official web portal to all federal, state and local government web resources and services.